Airfield :
LOGIN :

Register | Disclaimer

   EN    FR    IT 

 










Legend :    VFR   Marginal VFR   IFR   Intensive IFR   Very Intensive IFR
Visi :
Ceiling :
>= 8 km
>= 3000ft
5 to 8 km
1000 to 3000 ft
1500m to 5 km
500 to 1000 ft
800 to 1500m
200 to 500 ft
< 800m
< 200 ft
Symbols :   Thunderstorms  Fog  Heavy snow  Heavy precipitations  Wind > 20 kt
SIGMETs :     Misc.  Thunderstorms  Icing  Turbulence  Mountain Waves  Volcanic Ashes







- Airport Elevation : 1345 ft
- IATA code : FRZ


ETHF - Fritzlar

CURRENT METAR :
  • 251120Z 06005KT 9999 FEW020 BKN050 16/10 Q1021 BLU BLU TEMPO WHT

EXPIRED METARs :
  • 251020Z 04004KT 9999 FEW015 BKN045 16/11 Q1021 BLU BLU TEMPO WHT
  • 250920Z 05004KT 9999 BKN018 BKN048 15/11 Q1021 WHT BLU TEMPO WHT
  • 250820Z 03004KT 9999 FEW007 BKN020 BKN045 14/12 Q1021 WHT BLU TEMPO WHT

TAF TAF ETHF
Valid from the 25 at 11:00 until the 25 at 20:00 UTC


251018Z 2511/2520 05005KT 9999 NSW SCT020 BKN045
TEMPO 2511/2520 06008KT 9999 NSW SCT012 BKN020
No reported NOTAMs for that airfield.



MET'MAP, your aeronautical weather chart ! - Copyright ORBIFLY December 2007 - Disclaimer

ORBIFLY MET'MAP TEAM :

Programming & Development : Alexandra Zaïnal
Concept & Development : Baudouin d'Aumeries
Co-Development & Prog : Marc-Olivier Méhu
Technical & hardware support : Manuel Goepfert

Contact : metmap@orbifly.com




SOURCES & CREDITS :

   NOAA